createdAt,value
2019-05-11T00:01:54.101Z,8.23
2019-05-11T00:04:29.818Z,9.18
2019-05-11T00:06:58.943Z,9.60
2019-05-11T00:09:34.586Z,9.65
2019-05-11T00:12:03.729Z,9.53
2019-05-11T00:14:32.959Z,10.20
2019-05-11T00:17:08.655Z,9.95
2019-05-11T00:19:44.717Z,9.40
2019-05-11T00:22:27.925Z,10.47
2019-05-11T00:24:57.059Z,8.50
2019-05-11T00:27:32.559Z,9.30
2019-05-11T00:30:01.707Z,8.13
2019-05-11T00:32:30.922Z,8.90
2019-05-11T00:35:07.722Z,8.33
2019-05-11T00:37:36.933Z,8.88
2019-05-11T00:40:14.443Z,9.45
2019-05-11T00:42:44.573Z,8.38
2019-05-11T00:45:13.926Z,9.68
2019-05-11T00:47:50.021Z,9.60
2019-05-11T00:50:38.077Z,9.83
2019-05-11T00:53:02.943Z,10.10
2019-05-11T00:55:32.129Z,8.77
2019-05-11T00:58:01.341Z,8.73
2019-05-11T01:00:37.421Z,8.30
2019-05-11T01:03:13.399Z,11.30
2019-05-11T01:05:42.657Z,9.55
2019-05-11T01:08:11.977Z,9.55
2019-05-11T01:10:47.846Z,10.07
2019-05-11T01:13:16.968Z,11.23
2019-05-11T01:15:53.216Z,10.63
2019-05-11T01:18:22.401Z,9.60
2019-05-11T01:21:05.628Z,9.30
2019-05-11T01:23:41.024Z,9.60
2019-05-11T01:26:17.131Z,8.90
2019-05-11T01:28:46.373Z,9.33
2019-05-11T01:31:15.647Z,9.20
2019-05-11T01:33:51.233Z,9.68
2019-05-11T01:36:20.448Z,9.33
2019-05-11T01:38:55.757Z,10.05
2019-05-11T01:41:24.925Z,10.95
2019-05-11T01:44:00.923Z,10.23
2019-05-11T01:46:30.071Z,10.72
2019-05-11T01:48:59.305Z,9.97
2019-05-11T01:51:41.723Z,10.43
2019-05-11T01:54:10.949Z,9.67
2019-05-11T01:56:46.462Z,10.90
2019-05-11T01:59:15.615Z,11.80
2019-05-11T02:01:51.368Z,11.73
2019-05-11T02:04:20.503Z,10.93
2019-05-11T02:06:49.672Z,11.75
2019-05-11T02:09:25.375Z,10.68
2019-05-11T02:11:54.691Z,10.58
2019-05-11T02:14:30.127Z,11.50
2019-05-11T02:16:59.179Z,11.50
2019-05-11T02:19:34.773Z,11.40
2019-05-11T02:22:10.498Z,11.50
2019-05-11T02:24:46.749Z,10.08
2019-05-11T02:27:15.954Z,11.38
2019-05-11T02:29:45.193Z,10.98
2019-05-11T02:32:20.890Z,10.72
2019-05-11T02:34:50.118Z,11.70
2019-05-11T02:37:26.402Z,11.85
2019-05-11T02:39:55.581Z,10.50
2019-05-11T02:42:24.739Z,11.22
2019-05-11T02:45:00.469Z,11.27
2019-05-11T02:47:29.673Z,11.85
2019-05-11T02:50:05.739Z,12.17
2019-05-11T02:52:42.465Z,11.47
2019-05-11T02:55:18.641Z,11.27
2019-05-11T02:57:47.783Z,12.05
2019-05-11T03:00:20.687Z,12.00
2019-05-11T03:02:56.550Z,11.90
2019-05-11T03:05:25.683Z,12.40
2019-05-11T03:08:01.033Z,12.47
2019-05-11T03:10:30.197Z,12.80
2019-05-11T03:12:59.465Z,12.30
2019-05-11T03:15:35.509Z,12.53
2019-05-11T03:18:04.720Z,12.35
2019-05-11T03:20:48.367Z,12.20
2019-05-11T03:23:24.797Z,12.90
2019-05-11T03:26:00.228Z,13.05
2019-05-11T03:28:29.407Z,12.37
2019-05-11T03:30:58.531Z,12.58
2019-05-11T03:33:34.481Z,11.70
2019-05-11T03:36:03.705Z,11.22
2019-05-11T03:38:39.532Z,11.93
2019-05-11T03:41:08.701Z,12.53
2019-05-11T03:43:44.697Z,11.95
2019-05-11T03:46:13.919Z,12.58
2019-05-11T03:48:43.054Z,11.57
2019-05-11T03:51:25.393Z,12.13
2019-05-11T03:53:54.523Z,10.55
2019-05-11T03:56:30.601Z,11.48
2019-05-11T03:58:59.750Z,11.85
2019-05-11T04:01:28.868Z,11.12
2019-05-11T04:04:05.139Z,11.50
2019-05-11T04:06:34.350Z,11.68
2019-05-11T04:09:11.877Z,10.55
2019-05-11T04:11:41.107Z,12.10
2019-05-11T04:14:17.520Z,11.50
2019-05-11T04:16:46.784Z,12.05
2019-05-11T04:19:15.955Z,10.48
2019-05-11T04:21:52.184Z,11.45
2019-05-11T04:24:28.414Z,11.05
2019-05-11T04:27:04.201Z,11.08
2019-05-11T04:29:33.324Z,10.68
2019-05-11T04:32:09.204Z,10.68
2019-05-11T04:34:38.405Z,10.48
2019-05-11T04:37:07.673Z,10.50
2019-05-11T04:39:43.968Z,9.55
2019-05-11T04:42:13.243Z,11.00
2019-05-11T04:44:52.285Z,10.88
2019-05-11T04:47:21.644Z,9.78
2019-05-11T04:49:57.279Z,10.63
2019-05-11T04:52:32.629Z,10.75
2019-05-11T04:55:08.829Z,10.95
2019-05-11T04:57:38.391Z,10.48
2019-05-11T05:00:07.948Z,10.65
2019-05-11T05:02:43.541Z,10.45
2019-05-11T05:05:12.789Z,10.38
2019-05-11T05:07:50.487Z,10.53
2019-05-11T05:10:21.924Z,10.68
2019-05-11T05:12:53.192Z,10.58
2019-05-11T05:15:27.983Z,9.48
2019-05-11T05:18:03.873Z,9.23
2019-05-11T05:20:33.167Z,9.58
2019-05-11T05:23:16.673Z,10.10
2019-05-11T05:25:52.904Z,9.10
2019-05-11T05:28:28.369Z,9.30
2019-05-11T05:30:57.571Z,9.03
2019-05-11T05:33:26.765Z,9.15
2019-05-11T05:36:02.098Z,7.78
2019-05-11T05:38:31.245Z,8.60
2019-05-11T05:41:06.502Z,7.80
2019-05-11T05:43:35.708Z,8.05
2019-05-11T05:46:11.211Z,8.80
2019-05-11T05:48:40.326Z,9.18
2019-05-11T05:51:09.648Z,10.15
2019-05-11T05:53:51.405Z,13.72
2019-05-11T05:56:20.750Z,13.00
2019-05-11T05:58:56.210Z,10.40
2019-05-11T06:01:25.334Z,10.23
2019-05-11T06:04:01.590Z,10.13
2019-05-11T06:06:30.814Z,8.68
2019-05-11T06:09:00.000Z,8.50
2019-05-11T06:11:35.654Z,9.13
2019-05-11T06:14:04.868Z,8.57
2019-05-11T06:16:41.131Z,8.53
2019-05-11T06:19:10.326Z,8.00
2019-05-11T06:21:39.662Z,8.43
2019-05-11T06:24:15.561Z,8.53
2019-05-11T06:26:44.845Z,8.40
2019-05-11T06:29:21.853Z,8.83
2019-05-11T06:31:51.359Z,7.20
2019-05-11T06:34:28.133Z,8.63
2019-05-11T06:36:57.377Z,8.33
2019-05-11T06:39:26.613Z,7.85
2019-05-11T06:42:02.764Z,8.85
2019-05-11T06:44:32.029Z,8.33
2019-05-11T06:47:08.057Z,7.20
2019-05-11T06:49:37.565Z,7.63
2019-05-11T06:52:12.980Z,7.60
2019-05-11T06:54:48.441Z,7.80
2019-05-11T06:57:24.674Z,6.97
2019-05-11T06:59:53.970Z,6.97
2019-05-11T07:02:29.668Z,7.95
2019-05-11T07:04:58.920Z,7.58
2019-05-11T07:07:28.168Z,7.05
2019-05-11T07:10:03.732Z,7.20
2019-05-11T07:12:32.954Z,6.63
2019-05-11T07:15:08.464Z,6.90
2019-05-11T07:17:37.593Z,7.50
2019-05-11T07:20:14.413Z,6.53
2019-05-11T07:22:51.502Z,6.70
2019-05-11T07:25:36.236Z,7.15
2019-05-11T07:28:05.586Z,5.23
2019-05-11T07:30:34.918Z,6.40
2019-05-11T07:33:10.508Z,6.03
2019-05-11T07:35:39.691Z,6.55
2019-05-11T07:38:18.213Z,5.83
2019-05-11T07:40:47.687Z,5.65
2019-05-11T07:43:18.777Z,5.87
2019-05-11T07:45:55.242Z,6.78
2019-05-11T07:48:24.522Z,7.10
2019-05-11T07:51:00.236Z,5.70
2019-05-11T07:53:44.176Z,6.50
2019-05-11T07:56:28.583Z,5.85
2019-05-11T07:58:58.259Z,5.40
2019-05-11T08:01:28.286Z,5.37
2019-05-11T08:04:04.197Z,5.65
2019-05-11T08:06:33.457Z,5.28
2019-05-11T08:09:02.683Z,4.87
2019-05-11T08:11:39.247Z,5.17
2019-05-11T08:14:08.519Z,4.47
2019-05-11T08:16:39.093Z,4.40
2019-05-11T08:19:15.257Z,5.50
2019-05-11T08:21:44.406Z,4.90
2019-05-11T08:24:20.464Z,5.95
2019-05-11T08:26:49.756Z,5.92
2019-05-11T08:29:19.160Z,6.33
2019-05-11T08:31:57.770Z,6.67
2019-05-11T08:34:28.631Z,7.73
2019-05-11T08:37:03.836Z,9.30
2019-05-11T08:39:33.018Z,9.27
2019-05-11T08:42:09.086Z,9.90
2019-05-11T08:44:38.558Z,9.63
2019-05-11T08:47:08.505Z,8.60
2019-05-11T08:49:45.063Z,9.60
2019-05-11T08:52:14.306Z,9.20
2019-05-11T08:54:49.928Z,13.00
2019-05-11T08:57:28.464Z,11.70
2019-05-11T09:00:04.491Z,13.73
2019-05-11T09:02:33.766Z,11.97
2019-05-11T09:05:03.273Z,9.87
2019-05-11T09:07:39.251Z,9.93
2019-05-11T09:10:08.567Z,10.43
2019-05-11T09:12:38.360Z,9.23
2019-05-11T09:15:31.603Z,7.20
2019-05-11T09:17:48.608Z,8.03
2019-05-11T09:20:28.559Z,7.47
2019-05-11T09:22:58.946Z,6.97
2019-05-11T09:25:42.250Z,10.47
2019-05-11T09:28:18.175Z,7.27
2019-05-11T09:30:53.906Z,7.13
2019-05-11T09:33:23.262Z,9.00
2019-05-11T09:35:53.452Z,8.60
2019-05-11T09:38:30.206Z,8.93
2019-05-11T09:40:59.396Z,8.33
2019-05-11T09:43:41.786Z,8.27
2019-05-11T09:46:10.959Z,8.40
2019-05-11T09:48:40.147Z,10.73
2019-05-11T09:51:18.166Z,10.33
2019-05-11T09:53:48.302Z,9.70
2019-05-11T09:56:24.550Z,12.63
2019-05-11T09:58:59.884Z,11.57
2019-05-11T10:01:37.842Z,11.90
2019-05-11T10:04:09.078Z,10.73
2019-05-11T10:06:38.783Z,10.37
2019-05-11T10:09:14.912Z,9.87
2019-05-11T10:11:44.169Z,10.93
2019-05-11T10:14:19.898Z,13.00
2019-05-11T10:16:49.289Z,13.87
2019-05-11T10:19:18.909Z,15.03
2019-05-11T10:21:55.249Z,18.43
2019-05-11T10:24:24.572Z,20.83
2019-05-11T10:27:08.623Z,22.07
2019-05-11T10:29:44.843Z,25.67
2019-05-11T10:32:21.347Z,29.77
2019-05-11T10:34:55.334Z,29.90
2019-05-11T10:37:24.726Z,28.60
2019-05-11T10:40:00.282Z,28.07
2019-05-11T10:42:29.502Z,31.43
2019-05-11T10:45:05.190Z,32.60
2019-05-11T10:47:34.449Z,33.70
2019-05-11T10:50:09.980Z,33.20
2019-05-11T10:52:39.193Z,32.23
2019-05-11T10:55:08.935Z,33.87
2019-05-11T10:57:51.845Z,34.67
2019-05-11T11:00:21.473Z,31.43
2019-05-11T11:02:58.081Z,38.13
2019-05-11T11:05:28.020Z,39.10
2019-05-11T11:08:04.887Z,37.73
2019-05-11T11:10:34.025Z,39.03
2019-05-11T11:13:10.074Z,37.83
2019-05-11T11:15:39.198Z,36.43
2019-05-11T11:18:15.143Z,37.73
2019-05-11T11:20:44.281Z,33.87
2019-05-11T11:23:20.531Z,36.97
2019-05-11T11:25:58.510Z,34.63
2019-05-11T11:28:41.798Z,31.17
2019-05-11T11:31:11.045Z,31.23
2019-05-11T11:33:40.601Z,33.30
2019-05-11T11:36:17.876Z,29.40
2019-05-11T11:38:48.059Z,29.80
2019-05-11T11:41:24.459Z,27.60
2019-05-11T11:43:53.597Z,28.60
2019-05-11T11:46:29.237Z,28.00
2019-05-11T11:48:58.396Z,28.47
2019-05-11T11:51:28.680Z,29.10
2019-05-11T11:54:08.524Z,26.27
2019-05-11T11:56:37.983Z,27.23
2019-05-11T11:59:20.957Z,25.83
2019-05-11T12:01:50.125Z,25.90
2019-05-11T12:04:28.291Z,27.30
2019-05-11T12:06:58.070Z,21.80
2019-05-11T12:09:28.812Z,21.13
2019-05-11T12:12:07.968Z,21.37
2019-05-11T12:14:38.500Z,20.67
2019-05-11T12:17:14.657Z,19.73
2019-05-11T12:19:43.801Z,19.90
2019-05-11T12:22:13.046Z,18.20
2019-05-11T12:24:49.041Z,19.00
2019-05-11T12:27:25.997Z,16.50
2019-05-11T12:30:09.082Z,16.50
2019-05-11T12:32:43.668Z,17.13
2019-05-11T12:35:19.928Z,15.80
2019-05-11T12:37:49.278Z,15.03
2019-05-11T12:40:19.459Z,15.73
2019-05-11T12:42:59.052Z,15.73
2019-05-11T12:45:29.556Z,14.97
2019-05-11T12:48:06.185Z,14.93
2019-05-11T12:50:37.722Z,14.50
2019-05-11T12:53:18.395Z,14.60
2019-05-11T12:59:02.939Z,12.60
2019-05-11T16:23:20.587Z,7.30
2019-05-11T16:25:58.337Z,7.20
2019-05-11T16:28:30.663Z,7.03
2019-05-11T16:31:05.494Z,7.90
2019-05-11T16:33:35.068Z,7.27
2019-05-11T16:36:04.754Z,8.30
2019-05-11T16:38:42.478Z,14.63
2019-05-11T16:41:12.230Z,9.67
2019-05-11T16:43:51.406Z,11.40
2019-05-11T16:46:23.874Z,10.93
2019-05-11T16:48:59.636Z,11.80
2019-05-11T16:51:30.101Z,11.00
2019-05-11T16:53:59.293Z,7.73
2019-05-11T16:56:39.816Z,8.40
2019-05-11T16:59:09.282Z,8.73
2019-05-11T17:01:48.102Z,8.33
2019-05-11T17:04:17.427Z,8.13
2019-05-11T17:07:00.124Z,9.13
2019-05-11T17:09:29.333Z,28.10
2019-05-11T17:12:05.698Z,26.50
2019-05-11T17:18:33.189Z,232.13
2019-05-11T17:21:02.798Z,38.07
2019-05-11T17:23:48.846Z,235.07
2019-05-11T17:26:24.089Z,267.23
2019-05-11T17:28:59.398Z,165.97
2019-05-11T17:31:29.091Z,32.53
2019-05-11T17:33:58.356Z,67.70
2019-05-11T17:36:34.377Z,25.17
2019-05-11T17:39:06.090Z,49.73
2019-05-11T17:41:41.985Z,14.83
2019-05-11T17:44:11.242Z,46.47
2019-05-11T17:46:48.319Z,13.27
2019-05-11T17:49:18.467Z,22.03
2019-05-11T17:51:48.472Z,16.33
2019-05-11T17:54:25.315Z,10.20
2019-05-11T17:56:54.952Z,10.87
2019-05-11T17:59:30.641Z,13.20
2019-05-11T18:01:59.916Z,12.37
2019-05-11T18:04:35.347Z,15.67
2019-05-11T18:07:24.325Z,14.63
2019-05-11T18:09:49.447Z,12.17
2019-05-11T18:12:18.701Z,11.93
2019-05-11T18:14:48.765Z,17.40
2019-05-11T18:17:28.724Z,12.40
2019-05-11T18:20:12.634Z,9.97
2019-05-11T18:22:39.033Z,16.17
2019-05-11T18:25:20.336Z,9.17
2019-05-11T18:28:01.973Z,7.77
2019-05-11T18:30:41.903Z,7.50
2019-05-11T18:33:14.369Z,7.20
2019-05-11T18:36:02.487Z,7.87
2019-05-11T18:38:29.750Z,11.00
2019-05-11T18:41:11.779Z,12.70
2019-05-11T18:43:41.164Z,11.20
2019-05-11T18:46:12.617Z,8.97
2019-05-11T18:48:48.774Z,8.50
2019-05-11T18:51:20.402Z,8.80
2019-05-11T18:54:00.083Z,11.20
2019-05-11T18:56:29.548Z,9.03
2019-05-11T18:58:59.050Z,8.37
2019-05-11T19:01:48.371Z,14.40
2019-05-11T19:04:22.762Z,9.37
2019-05-11T19:07:13.077Z,9.00
2019-05-11T19:09:34.824Z,10.43
2019-05-11T19:12:15.700Z,14.33
2019-05-11T19:14:50.224Z,13.20
2019-05-11T19:17:31.289Z,15.53
2019-05-11T19:20:13.449Z,10.80
2019-05-11T19:22:59.802Z,9.40
2019-05-11T19:25:37.578Z,10.13
2019-05-11T19:28:19.373Z,9.77
2019-05-11T19:30:51.365Z,9.63
2019-05-11T19:33:30.713Z,7.60
2019-05-11T19:35:59.879Z,5.87
2019-05-11T19:38:29.227Z,6.73
2019-05-11T19:41:05.154Z,5.40
2019-05-11T19:43:35.438Z,6.70
2019-05-11T19:46:12.997Z,6.20
2019-05-11T20:32:28.326Z,5.23
2019-05-11T20:35:11.580Z,4.10
2019-05-11T20:37:48.227Z,3.30
2019-05-11T20:40:19.501Z,8.23
2019-05-11T20:42:58.762Z,7.20
2019-05-11T20:45:28.672Z,12.27
2019-05-11T20:47:58.080Z,8.33
2019-05-11T20:50:37.731Z,8.07
2019-05-11T20:53:08.398Z,3.60
2019-05-11T20:55:44.241Z,3.90
2019-05-11T20:58:14.957Z,5.17
2019-05-11T21:00:59.205Z,4.27
2019-05-11T21:03:28.505Z,3.98
2019-05-11T21:06:04.282Z,3.85
2019-05-11T21:08:34.663Z,4.70
2019-05-11T21:11:13.059Z,4.67
2019-05-11T21:13:43.414Z,3.80
2019-05-11T21:16:14.397Z,3.80
2019-05-11T21:18:51.099Z,5.03
2019-05-11T21:21:21.458Z,3.30
2019-05-11T21:23:58.010Z,2.85
2019-05-11T21:26:28.396Z,3.35
2019-05-11T21:29:04.741Z,4.30
2019-05-11T21:31:34.557Z,4.22
2019-05-11T21:34:18.774Z,4.60
2019-05-11T21:36:48.481Z,4.50
2019-05-11T21:39:17.813Z,3.60
2019-05-11T21:41:54.403Z,6.72
2019-05-11T21:44:24.111Z,4.15
2019-05-11T21:47:00.548Z,4.45
2019-05-11T21:49:29.757Z,5.50
2019-05-11T21:52:04.509Z,4.60
2019-05-11T21:54:38.668Z,3.42
2019-05-11T21:57:08.399Z,5.45
2019-05-11T21:59:44.606Z,4.62
2019-05-11T22:02:21.245Z,5.83
2019-05-11T22:05:02.980Z,11.43
2019-05-11T22:07:30.563Z,3.37
2019-05-11T22:10:08.887Z,4.50
2019-05-11T22:12:39.226Z,3.05
2019-05-11T22:15:18.567Z,3.83
2019-05-11T22:17:48.160Z,4.50
2019-05-11T22:20:28.812Z,4.42
2019-05-11T22:22:58.630Z,3.62
2019-05-11T22:25:28.877Z,3.62
2019-05-11T22:28:04.298Z,3.60
2019-05-11T22:30:34.049Z,3.67
2019-05-11T22:33:14.745Z,3.42
2019-05-11T22:35:52.148Z,4.08
2019-05-11T22:38:30.257Z,3.77
2019-05-11T22:41:03.697Z,3.90
2019-05-11T22:43:40.374Z,3.65
2019-05-11T22:46:31.947Z,4.08
2019-05-11T22:49:09.240Z,3.90
2019-05-11T22:51:40.721Z,3.70
2019-05-11T22:54:11.020Z,4.78
2019-05-11T22:56:49.725Z,4.17
2019-05-11T22:59:20.699Z,4.75
2019-05-11T23:01:57.229Z,4.40
2019-05-11T23:04:33.351Z,4.83
2019-05-11T23:07:09.552Z,4.60
2019-05-11T23:09:38.781Z,3.70
2019-05-11T23:12:15.089Z,6.25
2019-05-11T23:14:51.274Z,4.55
2019-05-11T23:17:33.591Z,4.15
2019-05-11T23:20:20.964Z,2.98
2019-05-11T23:23:09.324Z,3.42
2019-05-11T23:25:44.285Z,3.60
